Time;durP1;ratioP1;P1;durP2;ratioP2;P2;SDS_P1;SDS_P2;PMS_P1;PMS_P2;Temp;Humidity;BMP_temperature;BMP_pressure;BME280_temperature;BME280_humidity;BME280_pressure;Samples;Min_cycle;Max_cycle;Signal;HPM_P1;HPM_P2
2021/06/28 00:00:59;;;;;;;4.38;1.20;;;;;;;24.23;56.31;100392.69;5052713;28;20515;-80
2021/06/28 00:04:08;;;;;;;4.43;1.40;;;;;;;24.26;56.45;100395.84;5051212;28;20499;-80
2021/06/28 00:07:13;;;;;;;5.95;1.60;;;;;;;24.22;56.39;100388.28;5052384;28;20044;-80
2021/06/28 00:10:20;;;;;;;5.35;1.65;;;;;;;24.14;56.66;100392.13;5052360;28;20051;-80
2021/06/28 00:13:26;;;;;;;5.00;1.40;;;;;;;24.10;57.04;100390.03;5050699;28;20048;-80
2021/06/28 00:16:30;;;;;;;4.00;1.55;;;;;;;24.06;57.08;100383.28;5050408;28;20048;-80
2021/06/28 00:19:34;;;;;;;3.20;1.40;;;;;;;24.00;57.43;100404.19;5050856;28;20056;-80
2021/06/28 00:22:39;;;;;;;4.90;2.22;;;;;;;24.00;57.04;100400.63;5051419;28;20060;-81
2021/06/28 00:25:44;;;;;;;4.10;1.35;;;;;;;23.99;57.61;100394.31;5052797;28;20059;-80
2021/06/28 00:28:48;;;;;;;3.95;1.38;;;;;;;23.94;57.50;100389.47;5049860;28;20048;-81
2021/06/28 00:31:55;;;;;;;4.65;1.48;;;;;;;23.94;57.77;100386.75;5051442;28;20063;-81
2021/06/28 00:34:59;;;;;;;2.92;1.48;;;;;;;23.92;57.63;100388.84;5012633;28;20061;-81
2021/06/28 00:38:05;;;;;;;4.38;1.50;;;;;;;23.89;57.62;100388.44;5013203;28;20044;-80
2021/06/28 00:41:10;;;;;;;2.35;1.33;;;;;;;23.93;57.75;100393.28;5011260;28;20373;-80
2021/06/28 00:44:14;;;;;;;5.13;1.45;;;;;;;24.00;57.63;100390.47;5010755;28;20113;-80
2021/06/28 00:47:20;;;;;;;3.35;1.60;;;;;;;24.03;57.42;100380.97;5012911;28;20056;-80
2021/06/28 00:50:26;;;;;;;5.22;1.80;;;;;;;24.10;56.69;100384.53;5012373;28;20049;-80
2021/06/28 00:53:31;;;;;;;3.78;1.52;;;;;;;24.14;56.53;100380.31;5011020;28;20044;-80
2021/06/28 00:56:35;;;;;;;5.47;1.88;;;;;;;24.11;56.58;100383.47;5011601;28;20389;-80
2021/06/28 00:59:40;;;;;;;5.22;1.63;;;;;;;24.02;56.46;100377.41;5012590;28;20053;-81
2021/06/28 01:02:46;;;;;;;6.38;1.55;;;;;;;23.92;56.88;100385.28;5012441;28;20049;-80
2021/06/28 01:05:50;;;;;;;3.13;1.50;;;;;;;23.95;57.14;100390.28;5009925;28;20049;-80
2021/06/28 01:08:54;;;;;;;4.57;1.40;;;;;;;23.97;57.05;100387.34;5012708;28;20056;-80
2021/06/28 01:11:59;;;;;;;7.05;1.65;;;;;;;23.85;57.09;100390.78;5011957;28;20500;-81
2021/06/28 01:15:05;;;;;;;6.72;1.63;;;;;;;23.85;56.65;100390.78;5012388;28;20057;-80
2021/06/28 01:18:09;;;;;;;2.88;1.20;;;;;;;23.77;56.79;100385.56;5010298;28;20052;-81
2021/06/28 01:21:16;;;;;;;6.03;1.45;;;;;;;23.75;57.33;100390.41;5011525;28;20041;-81
2021/06/28 01:24:21;;;;;;;3.30;1.23;;;;;;;23.90;57.10;100395.59;5011687;28;20049;-80
2021/06/28 01:27:28;;;;;;;5.90;1.65;;;;;;;23.89;57.04;100399.41;5011626;28;20118;-80
2021/06/28 01:30:33;;;;;;;4.47;1.30;;;;;;;23.85;57.06;100393.53;5010701;28;20072;-80
2021/06/28 01:33:39;;;;;;;4.00;1.65;;;;;;;23.72;57.42;100388.13;5033660;28;20404;-80
2021/06/28 01:36:43;;;;;;;2.50;1.25;;;;;;;23.68;57.90;100394.25;5051732;28;20048;-79
2021/06/28 01:39:49;;;;;;;6.57;1.48;;;;;;;23.62;58.08;100392.41;5049742;28;20052;-81
2021/06/28 01:42:53;;;;;;;5.80;1.60;;;;;;;23.56;57.63;100396.84;5050237;28;20507;-81
2021/06/28 01:45:58;;;;;;;2.65;1.45;;;;;;;23.38;58.16;100390.41;5050954;28;20506;-80
2021/06/28 01:49:04;;;;;;;4.15;1.40;;;;;;;23.32;58.45;100400.28;4990416;28;20053;-80
2021/06/28 01:52:10;;;;;;;4.68;1.50;;;;;;;23.17;59.17;100388.75;4894876;29;20071;-80
2021/06/28 01:55:10;;;;;;;3.78;1.40;;;;;;;23.14;59.14;100391.91;4898402;29;20063;-80
2021/06/28 01:58:16;;;;;;;5.43;1.45;;;;;;;23.21;58.79;100401.78;4883720;29;20051;-81
2021/06/28 02:01:21;;;;;;;3.28;1.42;;;;;;;23.07;59.46;100400.16;4895868;29;20811;-80
2021/06/28 02:04:27;;;;;;;5.68;1.63;;;;;;;23.00;59.63;100393.84;4898215;29;20075;-81
2021/06/28 02:07:31;;;;;;;3.03;1.40;;;;;;;23.05;59.52;100395.94;4896501;29;20052;-80
2021/06/28 02:10:39;;;;;;;5.65;1.55;;;;;;;23.01;59.33;100381.81;4897010;29;20150;-80
2021/06/28 02:13:43;;;;;;;4.07;1.48;;;;;;;23.13;59.44;100388.31;4898143;29;20130;-81
2021/06/28 02:16:49;;;;;;;3.67;1.42;;;;;;;23.12;58.66;100386.66;4895829;29;20052;-81
2021/06/28 02:19:54;;;;;;;3.67;1.50;;;;;;;23.11;58.81;100392.31;4896634;29;20146;-80
2021/06/28 02:23:07;;;;;;;3.47;1.42;;;;;;;23.07;59.34;100393.81;4897292;29;20079;-80
2021/06/28 02:26:12;;;;;;;;;;;;;;;23.08;59.07;100406.47;4940658;28;20050;-80
2021/06/28 02:29:17;;;;;;;5.80;1.50;;;;;;;23.11;58.92;100398.66;5019299;28;20287;-80
2021/06/28 02:32:22;;;;;;;4.35;1.60;;;;;;;23.25;59.21;100408.53;5053511;28;20040;-80
2021/06/28 02:35:26;;;;;;;4.20;1.70;;;;;;;23.30;58.66;100391.44;5052390;28;20044;-81
2021/06/28 02:38:31;;;;;;;6.85;1.30;;;;;;;23.29;59.18;100392.50;5053064;28;20051;-81
2021/06/28 02:41:37;;;;;;;3.72;1.50;;;;;;;23.22;58.80;100400.75;5052664;28;20048;-81
2021/06/28 02:44:42;;;;;;;4.32;1.50;;;;;;;23.25;58.88;100399.47;4993142;28;20505;-80
2021/06/28 02:47:47;;;;;;;6.43;1.58;;;;;;;23.24;59.16;100395.88;4990989;28;20052;-80
2021/06/28 02:50:52;;;;;;;4.25;1.38;;;;;;;23.22;58.95;100395.25;4991420;28;20049;-80
2021/06/28 02:53:56;;;;;;;5.03;1.58;;;;;;;23.23;59.05;100394.19;4991918;28;20149;-81
2021/06/28 02:57:01;;;;;;;5.32;1.50;;;;;;;23.24;59.35;100392.28;4992505;28;20705;-81
2021/06/28 03:00:09;;;;;;;7.80;1.80;;;;;;;23.33;58.81;100392.91;4992989;28;20137;-80
2021/06/28 03:02:58;;;;;;;3.72;1.50;;;;;;;23.33;58.77;100385.53;5121711;27;20951;-79
2021/06/28 03:05:42;;;;;;;4.68;1.60;;;;;;;23.27;59.29;100384.50;5069125;28;20378;-80
2021/06/28 03:08:26;;;;;;;3.53;1.83;;;;;;;23.27;59.10;100398.19;5109524;27;20390;-80
2021/06/28 03:11:11;;;;;;;2.58;1.23;;;;;;;23.36;59.08;100389.75;5068891;28;20386;-80
2021/06/28 03:13:56;;;;;;;4.95;1.52;;;;;;;23.45;58.69;100396.69;5069017;28;20399;-80
2021/06/28 03:16:40;;;;;;;7.32;1.88;;;;;;;23.48;59.17;100408.03;5068996;28;20412;-81
2021/06/28 03:19:23;;;;;;;3.22;1.50;;;;;;;23.40;58.97;100394.59;5109697;27;20378;-81
2021/06/28 03:22:08;;;;;;;3.92;1.55;;;;;;;23.41;59.73;100406.38;5069046;28;20397;-80
2021/06/28 03:24:52;;;;;;;5.82;1.75;;;;;;;23.31;60.42;100399.44;5069041;28;20383;-81
2021/06/28 03:27:37;;;;;;;5.30;1.55;;;;;;;23.23;60.96;100404.31;5109649;27;20387;-80
2021/06/28 03:30:22;;;;;;;3.63;1.40;;;;;;;23.20;61.54;100396.53;5068904;28;20911;-80
2021/06/28 03:33:07;;;;;;;3.33;1.50;;;;;;;23.27;61.40;100409.16;5068221;28;20394;-80
2021/06/28 03:35:51;;;;;;;4.25;1.65;;;;;;;23.28;61.34;100407.25;5069095;28;20393;-80
2021/06/28 03:38:35;;;;;;;3.95;1.60;;;;;;;23.27;61.55;100414.63;5069175;28;20397;-81
2021/06/28 03:41:20;;;;;;;6.93;2.10;;;;;;;23.13;61.53;100403.94;5069175;28;20382;-81
2021/06/28 03:44:03;;;;;;;8.35;1.80;;;;;;;23.17;61.53;100407.91;5069143;28;20404;-80
2021/06/28 03:46:46;;;;;;;5.50;1.75;;;;;;;23.25;61.21;100415.91;5109457;27;20392;-81
2021/06/28 03:49:29;;;;;;;5.70;1.50;;;;;;;23.09;60.68;100411.72;5069116;28;20383;-82
2021/06/28 03:52:14;;;;;;;4.18;2.05;;;;;;;23.01;60.90;100411.94;5068955;28;20385;-81
2021/06/28 03:54:57;;;;;;;4.38;1.55;;;;;;;23.12;60.76;100418.66;5069041;28;20383;-81
2021/06/28 03:57:41;;;;;;;9.32;2.38;;;;;;;23.25;60.42;100413.16;5069189;28;20386;-81
2021/06/28 04:00:25;;;;;;;5.22;1.83;;;;;;;23.40;59.78;100407.47;5162607;27;20726;-80
2021/06/28 04:03:09;;;;;;;3.08;1.60;;;;;;;23.49;59.22;100409.72;5141125;27;20830;-80
2021/06/28 04:05:54;;;;;;;4.72;1.63;;;;;;;23.55;59.04;100414.38;5068274;28;20401;-81
2021/06/28 04:08:36;;;;;;;6.28;1.77;;;;;;;23.78;58.76;100420.13;5069107;28;20414;-79
2021/06/28 04:11:38;;;;;;;11.30;1.70;;;;;;;24.13;57.68;100422.50;5069002;28;20416;-80
2021/06/28 04:14:18;;;;;;;4.93;1.80;;;;;;;24.33;57.15;100414.97;5069184;28;20413;-80
2021/06/28 04:16:58;;;;;;;4.82;1.60;;;;;;;24.33;56.36;100412.22;5069187;28;20851;-80
2021/06/28 04:19:38;;;;;;;4.78;1.75;;;;;;;24.51;56.00;100418.66;5109676;27;20400;-80
2021/06/28 04:22:22;;;;;;;4.20;1.63;;;;;;;24.54;55.94;100414.63;5068983;28;20416;-81
2021/06/28 04:25:01;;;;;;;7.00;1.52;;;;;;;24.75;54.92;100416.09;5069166;28;20924;-80
2021/06/28 04:27:45;;;;;;;4.30;1.58;;;;;;;24.69;54.88;100412.34;5067320;28;20885;-80
2021/06/28 04:30:29;;;;;;;7.88;1.60;;;;;;;24.64;54.62;100420.41;5066292;28;20393;-79
2021/06/28 04:33:12;;;;;;;5.05;1.63;;;;;;;24.61;54.02;100418.16;5068942;28;20389;-80
2021/06/28 04:35:51;;;;;;;14.38;1.65;;;;;;;24.82;53.92;100420.50;5069258;28;20832;-81
2021/06/28 04:38:35;;;;;;;6.57;1.83;;;;;;;24.99;53.42;100418.84;5069005;28;20389;-80
2021/06/28 04:41:18;;;;;;;4.85;1.60;;;;;;;25.32;52.99;100426.75;5120927;27;20708;-81
2021/06/28 04:44:03;;;;;;;5.28;1.40;;;;;;;25.85;52.17;100424.22;5068892;28;20453;-80
2021/06/28 04:46:47;;;;;;;9.70;1.88;;;;;;;26.26;50.45;100427.06;5060018;28;20737;-81
2021/06/28 04:49:30;;;;;;;6.45;1.65;;;;;;;26.34;49.87;100425.88;5109647;27;20379;-79
2021/06/28 04:52:16;;;;;;;5.05;1.60;;;;;;;26.35;49.61;100431.13;5142212;27;20518;-81
2021/06/28 04:55:02;;;;;;;6.75;1.60;;;;;;;26.44;49.29;100439.91;5068929;28;20404;-79
2021/06/28 04:57:46;;;;;;;4.80;1.45;;;;;;;26.57;49.38;100436.91;5069021;28;20390;-80
2021/06/28 05:00:26;;;;;;;22.55;19.30;;;;;;;26.80;48.42;100441.66;5069051;28;20399;-79
2021/06/28 05:03:10;;;;;;;35.13;31.33;;;;;;;27.19;47.52;100434.59;5069046;28;20390;-82
2021/06/28 05:05:53;;;;;;;8.52;4.28;;;;;;;27.38;47.28;100437.00;5069062;28;20379;-81
2021/06/28 05:08:37;;;;;;;10.13;2.10;;;;;;;27.84;46.25;100426.94;5069020;28;20391;-80
2021/06/28 05:11:20;;;;;;;4.97;2.15;;;;;;;28.07;45.04;100435.97;5109701;27;20372;-81
2021/06/28 05:14:04;;;;;;;6.40;2.00;;;;;;;28.28;45.04;100435.28;5069126;28;20378;-81
2021/06/28 05:16:48;;;;;;;9.13;2.15;;;;;;;28.82;43.54;100433.78;5068550;28;20402;-81
2021/06/28 05:19:27;;;;;;;8.68;1.90;;;;;;;29.70;41.87;100430.09;5109734;27;20387;-79
2021/06/28 05:22:07;;;;;;;7.63;2.10;;;;;;;30.44;40.86;100435.94;5069289;28;20426;-81
2021/06/28 05:24:47;;;;;;;4.30;1.48;;;;;;;30.75;40.17;100433.19;5069335;28;20386;-82
2021/06/28 05:27:30;;;;;;;8.52;1.58;;;;;;;31.04;39.04;100441.19;5069185;28;20742;-81
2021/06/28 05:30:16;;;;;;;6.50;1.40;;;;;;;32.62;36.25;100431.31;5109696;27;20384;-81
2021/06/28 05:33:00;;;;;;;9.02;2.30;;;;;;;34.35;33.67;100438.91;5070328;28;20390;-80
2021/06/28 05:35:42;;;;;;;6.95;1.30;;;;;;;35.72;31.79;100442.16;5070322;28;20391;-79
2021/06/28 05:38:22;;;;;;;6.78;1.30;;;;;;;36.73;30.25;100435.13;5070307;28;20387;-79
2021/06/28 05:41:05;;;;;;;8.57;1.20;;;;;;;38.36;28.48;100440.91;5070195;28;20387;-82
2021/06/28 05:43:47;;;;;;;5.78;1.40;;;;;;;39.65;26.16;100439.81;5064982;27;1549487;-82
2021/06/28 05:46:31;;;;;;;4.13;1.50;;;;;;;40.61;25.19;100440.50;5110724;27;20384;-80
2021/06/28 05:49:15;;;;;;;5.57;1.48;;;;;;;39.83;25.58;100438.69;5070558;28;20391;-79
2021/06/28 05:51:56;;;;;;;5.70;1.52;;;;;;;38.34;27.24;100440.41;5111581;27;20882;-81
2021/06/28 05:54:39;;;;;;;6.95;1.30;;;;;;;39.51;25.50;100441.84;5069767;28;20391;-80
2021/06/28 05:57:24;;;;;;;26.88;2.15;;;;;;;41.38;24.23;100439.56;5070854;28;20734;-81
2021/06/28 06:00:11;;;;;;;4.50;1.40;;;;;;;41.51;23.57;100442.16;5071060;28;20394;-85
2021/06/28 06:02:56;;;;;;;3.45;1.10;;;;;;;43.49;22.26;100446.22;5069844;28;20142;-79
2021/06/28 06:05:36;;;;;;;6.45;1.10;;;;;;;44.36;20.53;100447.50;5071175;28;20405;-83
2021/06/28 06:08:24;;;;;;;4.78;1.52;;;;;;;43.67;21.70;100453.31;5070767;28;20387;-81
2021/06/28 06:11:04;;;;;;;4.32;1.10;;;;;;;46.08;18.88;100447.84;5070904;28;20391;-81
2021/06/28 06:13:48;;;;;;;5.80;1.25;;;;;;;46.72;18.30;100450.09;5050061;28;20758;-81
2021/06/28 06:16:31;;;;;;;6.13;1.70;;;;;;;45.78;19.38;100447.50;5067271;28;20398;-80
2021/06/28 06:19:12;;;;;;;5.20;1.30;;;;;;;46.60;18.86;100453.06;5110668;27;20900;-81
2021/06/28 06:21:55;;;;;;;4.15;1.33;;;;;;;45.62;20.18;100452.38;5071126;28;20390;-80
2021/06/28 06:24:38;;;;;;;6.28;1.23;;;;;;;44.13;20.62;100458.53;5068454;28;20391;-80
2021/06/28 06:27:21;;;;;;;4.53;1.30;;;;;;;45.08;20.41;100461.44;5107870;27;20384;-80
2021/06/28 06:30:06;;;;;;;6.72;1.45;;;;;;;43.98;21.23;100465.72;5107902;27;20384;-80
2021/06/28 06:32:50;;;;;;;8.85;1.58;;;;;;;43.13;22.02;100461.94;5067756;28;20393;-81
2021/06/28 06:35:34;;;;;;;20.63;2.35;;;;;;;44.06;21.15;100465.94;5108305;27;20392;-80
2021/06/28 06:38:18;;;;;;;31.05;3.58;;;;;;;44.86;20.71;100469.69;5067750;28;20387;-81
2021/06/28 06:41:03;;;;;;;40.25;3.83;;;;;;;45.18;20.94;100471.41;5069753;28;20396;-79
2021/06/28 06:43:44;;;;;;;38.08;4.03;;;;;;;45.35;20.50;100458.94;5070900;28;20394;-79
2021/06/28 06:46:27;;;;;;;40.42;4.13;;;;;;;44.18;21.10;100463.94;5111193;27;20746;-81
2021/06/28 06:49:07;;;;;;;18.63;3.28;;;;;;;44.84;20.45;100460.72;5111476;27;20399;-79
2021/06/28 06:51:47;;;;;;;17.80;2.83;;;;;;;46.83;19.05;100454.00;5111567;27;20394;-79
2021/06/28 06:54:32;;;;;;;19.23;2.58;;;;;;;47.70;18.23;100454.06;5070784;28;20393;-79
2021/06/28 06:57:16;;;;;;;19.33;2.50;;;;;;;48.00;17.89;100457.78;5070872;28;20409;-82
2021/06/28 06:59:55;;;;;;;13.82;2.55;;;;;;;48.88;17.42;100461.94;5070982;28;20397;-81
2021/06/28 07:02:39;;;;;;;24.33;2.55;;;;;;;48.09;18.32;100463.22;5070811;28;20397;-80
2021/06/28 07:05:23;;;;;;;19.88;2.42;;;;;;;47.90;17.88;100454.81;5070513;28;20387;-78
2021/06/28 07:08:05;;;;;;;22.10;2.88;;;;;;;47.47;18.28;100470.31;5070978;28;20393;-80
2021/06/28 07:10:50;;;;;;;9.20;2.00;;;;;;;49.06;17.00;100461.31;5070546;28;20378;-80
2021/06/28 07:13:30;;;;;;;18.63;2.45;;;;;;;48.69;16.96;100462.06;5070858;28;20390;-80
2021/06/28 07:16:14;;;;;;;17.08;2.55;;;;;;;48.97;16.86;100463.63;5070486;28;20393;-79
2021/06/28 07:18:53;;;;;;;11.13;2.13;;;;;;;49.40;16.72;100460.06;5070855;28;20383;-78
2021/06/28 07:21:37;;;;;;;18.98;2.72;;;;;;;50.87;15.79;100459.44;5070507;28;20895;-80
2021/06/28 07:24:21;;;;;;;15.07;2.10;;;;;;;50.06;16.17;100456.97;5110783;27;20380;-81
2021/06/28 07:27:06;;;;;;;16.40;2.67;;;;;;;50.27;16.76;100461.19;5070521;28;20405;-81
2021/06/28 07:29:50;;;;;;;27.55;4.22;;;;;;;48.85;17.55;100459.03;5070813;28;20382;-81
2021/06/28 07:32:36;;;;;;;26.65;3.25;;;;;;;49.05;17.41;100459.66;5070916;28;20382;-81
2021/06/28 07:35:16;;;;;;;22.27;3.00;;;;;;;49.79;17.02;100460.41;5070591;28;20394;-79
2021/06/28 07:37:57;;;;;;;29.27;3.33;;;;;;;50.02;16.81;100459.00;5070950;28;20394;-80
2021/06/28 07:40:41;;;;;;;24.38;2.92;;;;;;;49.75;16.87;100466.09;5069790;28;20409;-80
2021/06/28 07:43:24;;;;;;;16.35;2.30;;;;;;;49.73;17.12;100459.16;5070042;28;20386;-79
2021/06/28 07:46:07;;;;;;;10.77;2.10;;;;;;;50.62;15.99;100465.06;5070786;28;20742;-80
2021/06/28 07:48:50;;;;;;;16.48;2.10;;;;;;;48.82;17.55;100459.78;5111184;27;20398;-80
2021/06/28 07:51:35;;;;;;;15.82;2.00;;;;;;;48.68;17.30;100460.44;5071035;28;20395;-80
2021/06/28 07:54:20;;;;;;;9.82;2.10;;;;;;;49.95;17.12;100458.13;5173780;27;20323;-81
2021/06/28 07:57:04;;;;;;;24.38;2.42;;;;;;;49.02;17.18;100461.25;5070505;28;20387;-78
2021/06/28 07:59:48;;;;;;;13.32;2.38;;;;;;;48.55;17.62;100456.19;5110985;27;20866;-80
2021/06/28 08:02:27;;;;;;;6.70;2.13;;;;;;;47.08;18.81;100460.22;5070091;28;20410;-80
2021/06/28 08:05:12;;;;;;;5.53;1.40;;;;;;;49.80;16.72;100447.78;5070417;28;20397;-80
2021/06/28 08:07:56;;;;;;;8.73;1.55;;;;;;;48.44;17.76;100449.50;5070646;28;20387;-79
2021/06/28 08:10:40;;;;;;;12.50;1.80;;;;;;;49.27;16.96;100450.13;5070562;28;20391;-80
2021/06/28 08:13:23;;;;;;;5.35;1.40;;;;;;;46.56;18.99;100446.50;5070758;28;20720;-79
2021/06/28 08:16:04;;;;;;;5.60;1.60;;;;;;;43.75;21.24;100455.25;5070876;28;20398;-81
2021/06/28 08:18:49;;;;;;;9.90;1.52;;;;;;;42.21;22.73;100456.72;5070581;28;20845;-81
2021/06/28 08:21:34;;;;;;;6.63;1.60;;;;;;;41.00;24.26;100453.56;5070742;28;20390;-79
2021/06/28 08:24:19;;;;;;;9.63;2.00;;;;;;;38.44;27.23;100448.56;5090478;27;20381;-78
2021/06/28 08:27:04;;;;;;;6.18;2.30;;;;;;;36.99;29.52;100442.81;5110359;27;20380;-80
2021/06/28 08:29:44;;;;;;;9.15;2.30;;;;;;;35.52;31.70;100453.56;5069581;28;20391;-79
2021/06/28 08:32:27;;;;;;;9.85;2.97;;;;;;;35.01;33.29;100451.25;5070870;28;20387;-79
2021/06/28 08:35:10;;;;;;;13.38;3.25;;;;;;;34.57;34.80;100448.56;5111268;27;20383;-78
2021/06/28 08:37:53;;;;;;;13.88;4.15;;;;;;;34.28;35.47;100449.56;5070946;28;20709;-78
2021/06/28 08:40:37;;;;;;;15.15;4.20;;;;;;;33.46;36.92;100448.22;5070612;28;20383;-78
2021/06/28 08:43:21;;;;;;;11.10;3.42;;;;;;;33.41;36.80;100440.72;5070516;28;20413;-81
2021/06/28 08:46:06;;;;;;;7.82;4.20;;;;;;;33.49;37.03;100435.66;5111142;27;20373;-81
2021/06/28 08:48:51;;;;;;;9.85;3.10;;;;;;;33.42;37.20;100442.38;5173757;27;20334;-78
2021/06/28 08:51:31;;;;;;;9.70;3.28;;;;;;;33.49;36.14;100436.50;5070369;28;20392;-79
2021/06/28 08:54:15;;;;;;;12.48;3.30;;;;;;;33.97;36.20;100441.34;5070721;28;20390;-80
2021/06/28 08:57:01;;;;;;;13.50;5.10;;;;;;;33.35;37.28;100441.03;5070369;28;20394;-80
2021/06/28 08:59:44;;;;;;;9.77;4.72;;;;;;;33.19;37.62;100433.81;5110991;27;20376;-80
2021/06/28 09:02:27;;;;;;;10.50;4.93;;;;;;;32.99;37.72;100431.00;5070492;28;20385;-81
2021/06/28 09:05:11;;;;;;;11.63;3.97;;;;;;;33.03;38.33;100437.75;5070409;28;20387;-79
2021/06/28 09:08:14;;;;;;;12.50;4.32;;;;;;;32.53;38.48;100430.22;5070777;28;20711;-80
2021/06/28 09:10:53;;;;;;;8.40;2.70;;;;;;;32.76;37.48;100438.00;5091073;27;20389;-79
2021/06/28 09:13:41;;;;;;;6.22;2.80;;;;;;;33.25;36.93;100425.19;5070882;28;20386;-79
2021/06/28 09:16:26;;;;;;;9.38;3.17;;;;;;;33.12;37.18;100430.47;5131750;27;20124;-81
2021/06/28 09:19:16;;;;;;;9.27;2.80;;;;;;;32.79;37.65;100438.28;5070557;28;20390;-79
2021/06/28 09:21:57;;;;;;;8.02;3.10;;;;;;;32.65;38.05;100433.53;5111301;27;20390;-77
2021/06/28 09:24:49;;;;;;;7.32;3.22;;;;;;;32.99;38.34;100428.22;5111390;27;20379;-78
2021/06/28 09:27:41;;;;;;;6.60;3.53;;;;;;;32.97;37.16;100433.25;5070790;28;20383;-79
2021/06/28 09:30:22;;;;;;;12.13;3.70;;;;;;;32.69;38.70;100429.94;5070800;27;20406;-79
2021/06/28 09:33:06;;;;;;;11.88;3.70;;;;;;;32.70;38.67;100423.25;5070764;28;20382;-79
2021/06/28 09:35:46;;;;;;;10.75;3.25;;;;;;;32.58;37.60;100413.53;5051529;28;20754;-80
2021/06/28 09:38:38;;;;;;;7.88;2.60;;;;;;;32.91;38.06;100407.41;5070520;28;20391;-79
2021/06/28 09:41:29;;;;;;;9.93;3.38;;;;;;;33.07;37.02;100411.00;5070530;28;20869;-76
2021/06/28 09:44:13;;;;;;;9.68;2.42;;;;;;;32.49;37.47;100402.09;5070510;28;20386;-80
2021/06/28 09:47:05;;;;;;;12.73;2.60;;;;;;;32.55;38.00;100406.59;5070891;28;20394;-79
2021/06/28 09:50:15;;;;;;;6.70;2.60;;;;;;;32.38;36.40;100403.22;5070951;28;20449;-79
2021/06/28 09:53:08;;;;;;;6.13;1.85;;;;;;;32.37;36.21;100404.31;5091051;27;20813;-79
2021/06/28 09:56:05;;;;;;;5.45;1.55;;;;;;;32.65;34.75;100392.69;5091133;27;20440;-79
2021/06/28 09:59:40;;;;;;;8.55;2.00;;;;;;;33.11;35.61;100401.00;5089864;27;20452;-79
2021/06/28 10:02:39;;;;;;;10.82;1.85;;;;;;;33.09;35.86;100403.22;5091106;27;20801;-79
2021/06/28 10:06:10;;;;;;;9.43;1.90;;;;;;;32.96;34.86;100401.81;5133756;27;20439;-80
2021/06/28 10:09:11;;;;;;;10.73;1.75;;;;;;;33.25;34.85;100396.50;5194187;27;20882;-80
2021/06/28 10:12:20;;;;;;;4.18;1.50;;;;;;;32.96;34.39;100395.44;5092012;27;20485;-80
2021/06/28 10:15:42;;;;;;;11.00;2.10;;;;;;;32.79;34.49;100376.25;5149944;27;20390;-81
2021/06/28 10:18:38;;;;;;;8.40;1.55;;;;;;;32.83;34.24;100382.09;5050599;28;20390;-80
2021/06/28 10:21:39;;;;;;;7.10;1.52;;;;;;;32.75;33.69;100381.56;5132561;27;20896;-79
2021/06/28 10:24:36;;;;;;;7.10;1.85;;;;;;;32.94;34.00;100389.28;5103060;27;20422;-77
2021/06/28 10:27:37;;;;;;;6.88;1.73;;;;;;;32.78;34.07;100369.88;5134414;27;20394;-81
2021/06/28 10:30:24;;;;;;;3.45;1.40;;;;;;;33.01;34.13;100371.19;4272453;27;23954271;-78
2021/06/28 10:33:28;;;;;;;11.45;1.67;;;;;;;33.30;32.38;100371.44;5106729;27;20376;-80
2021/06/28 10:36:57;;;;;;;5.03;1.60;;;;;;;32.78;32.72;100369.03;5132959;27;20427;-77
2021/06/28 10:40:15;;;;;;;10.82;1.80;;;;;;;33.09;32.46;100358.69;5150045;27;20381;-80
2021/06/28 10:43:24;;;;;;;6.15;1.30;;;;;;;32.82;33.29;100366.50;5090970;27;20391;-80
2021/06/28 10:46:28;;;;;;;9.32;1.58;;;;;;;33.09;33.20;100364.25;5070484;28;20399;-79
2021/06/28 10:49:14;;;;;;;5.28;1.40;;;;;;;33.22;32.99;100363.69;5131820;27;20407;-80
2021/06/28 10:51:54;;;;;;;11.30;1.73;;;;;;;32.94;34.11;100358.69;5070909;28;20412;-80
2021/06/28 10:55:17;;;;;;;15.30;2.97;;;;;;;32.98;34.69;100362.59;5070990;28;20052;-81
2021/06/28 10:58:54;;;;;;;8.65;1.70;;;;;;;33.08;34.11;100355.09;5070852;28;20043;-81
2021/06/28 11:02:19;;;;;;;9.73;1.02;;;;;;;32.87;33.34;100356.22;5069976;28;20064;-80
2021/06/28 11:06:13;;;;;;;11.20;1.60;;;;;;;32.75;34.41;100347.34;5067554;28;20048;-78
2021/06/28 11:09:47;;;;;;;8.07;1.65;;;;;;;32.83;34.38;100355.13;5070305;28;20519;-80
2021/06/28 11:13:36;;;;;;;5.33;1.50;;;;;;;32.90;33.87;100346.47;5070398;28;20048;-81
2021/06/28 11:17:08;;;;;;;11.38;1.48;;;;;;;33.02;34.51;100341.44;5069915;28;20072;-80
2021/06/28 11:20:39;;;;;;;6.97;1.70;;;;;;;33.05;34.43;100335.34;5070491;28;20056;-79
2021/06/28 11:24:02;;;;;;;6.93;1.83;;;;;;;33.17;33.58;100333.09;5070350;28;20507;-80
2021/06/28 11:27:22;;;;;;;10.25;1.42;;;;;;;33.19;32.80;100333.63;5069617;28;20483;-80
2021/06/28 11:30:22;;;;;;;4.70;1.10;;;;;;;33.11;33.25;100335.03;5091047;27;20394;-80
2021/06/28 11:33:31;;;;;;;6.80;1.17;;;;;;;33.07;33.46;100328.38;5050627;28;20892;-80
2021/06/28 11:36:37;;;;;;;8.10;1.30;;;;;;;33.14;32.81;100320.56;5040610;28;20064;-80
2021/06/28 11:39:57;;;;;;;8.48;1.25;;;;;;;33.20;33.50;100324.19;5049816;28;20048;-80
2021/06/28 11:43:01;;;;;;;6.07;1.30;;;;;;;33.16;33.67;100306.41;5091740;27;20499;-78
2021/06/28 11:45:57;;;;;;;7.75;1.40;;;;;;;33.16;34.21;100309.97;5194565;27;20400;-81
2021/06/28 11:49:03;;;;;;;8.73;1.27;;;;;;;33.15;34.50;100301.94;5117654;27;20439;-79
2021/06/28 11:51:49;;;;;;;9.90;1.80;;;;;;;33.17;34.62;100303.31;4173825;27;26994327;-80
2021/06/28 11:54:30;;;;;;;6.32;1.80;;;;;;;33.23;34.69;100304.13;4510446;27;18620657;-79
2021/06/28 11:57:37;;;;;;;6.75;1.50;;;;;;;33.05;36.46;100291.69;5147240;27;20377;-80
2021/06/28 12:00:38;;;;;;;9.60;1.23;;;;;;;33.05;36.21;100288.91;5132484;27;20760;-80
2021/06/28 12:03:48;;;;;;;6.88;1.30;;;;;;;33.18;36.64;100296.63;5132726;27;20413;-80
2021/06/28 12:06:45;;;;;;;6.68;1.45;;;;;;;33.26;36.65;100297.97;5091425;27;20445;-81
2021/06/28 12:10:03;;;;;;;9.70;1.35;;;;;;;33.39;36.48;100280.66;5150679;27;20386;-80
2021/06/28 12:13:04;;;;;;;6.15;1.73;;;;;;;33.28;36.43;100279.88;5194355;27;20478;-81
2021/06/28 12:16:23;;;;;;;8.82;1.67;;;;;;;33.01;36.45;100276.63;5117468;27;20438;-80
2021/06/28 12:19:28;;;;;;;7.78;1.45;;;;;;;33.20;36.31;100282.44;5113703;27;20411;-80
2021/06/28 12:22:38;;;;;;;12.88;1.50;;;;;;;33.38;36.29;100277.03;5114145;27;20393;-80
2021/06/28 12:26:12;;;;;;;9.73;1.40;;;;;;;33.45;35.42;100279.53;5133329;27;20402;-79
2021/06/28 12:28:59;;;;;;;4.70;1.17;;;;;;;33.33;35.11;100287.38;5111139;27;20331;-81
2021/06/28 12:32:03;;;;;;;5.93;1.30;;;;;;;33.53;34.82;100287.25;5070420;28;20386;-79
2021/06/28 12:34:57;;;;;;;6.07;1.25;;;;;;;33.60;34.24;100281.44;5070789;28;20393;-79
2021/06/28 12:37:48;;;;;;;5.35;1.27;;;;;;;33.60;33.62;100287.00;5091081;27;20720;-79
2021/06/28 12:40:38;;;;;;;9.43;1.30;;;;;;;33.40;34.50;100282.34;5050582;28;20394;-78
2021/06/28 12:43:19;;;;;;;5.57;1.10;;;;;;;33.43;34.76;100278.97;5111545;27;20403;-80
2021/06/28 12:46:07;;;;;;;4.00;1.13;;;;;;;33.42;35.09;100268.97;5070775;28;20129;-80
2021/06/28 12:48:51;;;;;;;11.52;1.38;;;;;;;33.53;34.74;100278.91;5070870;28;20422;-79
2021/06/28 12:51:35;;;;;;;5.65;1.58;;;;;;;33.49;33.30;100280.63;5070680;28;20390;-80
2021/06/28 12:54:28;;;;;;;6.93;1.23;;;;;;;33.46;33.89;100269.22;5070961;28;20395;-78
2021/06/28 12:57:26;;;;;;;6.20;1.33;;;;;;;33.67;33.98;100270.78;5091033;27;20912;-81
2021/06/28 13:00:45;;;;;;;8.40;1.50;;;;;;;33.80;33.40;100262.59;5131581;27;20865;-78
2021/06/28 13:03:47;;;;;;;7.75;1.23;;;;;;;33.98;34.04;100253.56;5133600;27;20434;-80
2021/06/28 13:06:49;;;;;;;6.60;1.48;;;;;;;33.94;34.93;100262.81;5194165;27;20871;-81
2021/06/28 13:09:58;;;;;;;7.28;1.48;;;;;;;33.88;36.37;100253.66;5091093;27;20442;-79
2021/06/28 13:12:52;;;;;;;6.70;1.33;;;;;;;33.88;36.42;100259.22;5091048;27;20460;-79
2021/06/28 13:16:10;;;;;;;3.78;1.42;;;;;;;33.86;36.13;100247.53;5091532;27;20438;-80
2021/06/28 13:19:30;;;;;;;6.97;1.25;;;;;;;34.06;36.20;100242.94;5150918;27;20410;-79
2021/06/28 13:22:23;;;;;;;5.45;1.15;;;;;;;33.77;35.93;100245.66;5093189;27;20444;-79
2021/06/28 13:25:25;;;;;;;7.32;1.50;;;;;;;33.75;36.04;100245.94;5194283;27;20413;-80
2021/06/28 13:28:23;;;;;;;8.68;1.73;;;;;;;33.82;35.77;100245.63;5091886;27;20452;-80